Gentryville, Indiana
Current Conditions -  °F | °C
As of 10:15 AM on Thursday 18 Dec 2014 (Local Time) from KHNB Reporting Station
Broken Clouds Broken Clouds  
Wind Chill: -1°   Ceiling: 7500
Heat Index: -1°   Visibility: 8mi
Dew Point: -6°   Wind: 3mph
Humidity: 69%   Direction: 360°N
Pressure: 30.32"   Gusts: NA
Location:  38.1°N, 87.03°W
Report Text: KHNB 181615Z AUTO 36003KT 8SM BKN075 M01/M06 A3032 RMK AO1
Loading
Personal Weather Stations






























Interactive Weather Map New forecast layout! Learn more

10-Day Weather Forecast

Advertisements
Track Severe Weather on mobile